TimeEDT,TemperatureF,Dew PointF,Humidity,Sea Level PressureIn,VisibilityMPH,Wind Direction,Wind SpeedMPH,Gust SpeedMPH,PrecipitationIn,Events,Conditions,WindDirDegrees,DateUTC
12:11 AM,79.7,78.1,95,29.82,10.0,SSW,5.8,-,N/A,,Mostly Cloudy,200,2013-07-23 04:11:00
12:32 AM,79.3,78.3,96,29.81,10.0,SSW,5.8,-,N/A,,Scattered Clouds,210,2013-07-23 04:32:00
12:52 AM,79.2,78.8,99,29.80,10.0,SSW,5.8,-,N/A,,Scattered Clouds,210,2013-07-23 04:52:00
1:12 AM,79.3,77.9,95,29.79,10.0,SSW,6.9,-,N/A,,Clear,210,2013-07-23 05:12:00
1:32 AM,79.2,77.2,94,29.78,10.0,SSW,6.9,-,N/A,,Clear,210,2013-07-23 05:32:00
1:52 AM,78.8,76.3,92,29.77,10.0,SSW,8.1,-,N/A,,Clear,200,2013-07-23 05:52:00
2:12 AM,78.8,76.1,91,29.77,10.0,South,5.8,-,N/A,,Scattered Clouds,180,2013-07-23 06:12:00
2:32 AM,78.8,76.1,91,29.77,10.0,South,6.9,-,N/A,,Scattered Clouds,170,2013-07-23 06:32:00
2:52 AM,78.1,75.9,93,29.76,10.0,North,4.6,-,N/A,,Mostly Cloudy,360,2013-07-23 06:52:00
3:12 AM,75.2,75.2,100,29.76,10.0,NNW,3.5,10.4,0.10,,Mostly Cloudy,340,2013-07-23 07:12:00
3:32 AM,74.7,74.7,100,29.76,10.0,Calm,Calm,-,0.10,,Mostly Cloudy,0,2013-07-23 07:32:00
3:52 AM,74.7,74.7,100,29.76,10.0,Calm,Calm,-,0.10,,Overcast,0,2013-07-23 07:52:00
4:12 AM,74.5,74.5,100,29.75,10.0,Calm,Calm,-,N/A,,Overcast,0,2013-07-23 08:12:00
4:32 AM,74.8,74.8,100,29.75,10.0,Calm,Calm,-,N/A,,Overcast,0,2013-07-23 08:32:00
4:52 AM,75.2,75.2,100,29.74,10.0,Calm,Calm,-,N/A,,Mostly Cloudy,0,2013-07-23 08:52:00
5:12 AM,75.2,75.2,100,29.74,7.0,Calm,Calm,-,N/A,,Mostly Cloudy,0,2013-07-23 09:12:00
5:32 AM,75.6,75.6,100,29.74,10.0,Calm,Calm,-,N/A,,Overcast,0,2013-07-23 09:32:00
5:50 AM,77.0,77.0,100,29.73,10.0,SW,5.8,-,N/A,,Overcast,230,2013-07-23 09:50:00
5:52 AM,76.6,76.6,100,29.73,10.0,WSW,3.5,-,N/A,,Overcast,250,2013-07-23 09:52:00
6:12 AM,77.4,77.4,100,29.74,10.0,WSW,5.8,-,N/A,,Overcast,240,2013-07-23 10:12:00
6:32 AM,77.4,77.4,100,29.74,10.0,WSW,6.9,-,N/A,,Overcast,240,2013-07-23 10:32:00
6:52 AM,78.1,78.1,100,29.74,10.0,WSW,5.8,-,N/A,,Overcast,240,2013-07-23 10:52:00
6:53 AM,77.0,77.0,100,29.74,10.0,WSW,3.5,-,N/A,,Overcast,240,2013-07-23 10:53:00
7:12 AM,77.9,77.9,100,29.74,10.0,WSW,4.6,-,N/A,,Overcast,250,2013-07-23 11:12:00
7:32 AM,78.1,78.1,100,29.74,10.0,West,4.6,-,N/A,,Overcast,260,2013-07-23 11:32:00
7:42 AM,78.4,78.4,100,29.74,10.0,West,3.5,-,N/A,,Overcast,260,2013-07-23 11:42:00
7:55 AM,80.6,80.6,100,29.74,10.0,WSW,4.6,-,N/A,,Mostly Cloudy,250,2013-07-23 11:55:00
8:45 AM,80.6,77.0,89,29.71,10.0,West,5.8,-,N/A,,Mostly Cloudy,260,2013-07-23 12:45:00
9:47 AM,80.6,75.2,84,29.73,10.0,West,5.8,-,N/A,,Mostly Cloudy,270,2013-07-23 13:47:00
10:45 AM,80.6,75.2,84,29.73,10.0,WNW,6.9,-,N/A,,Mostly Cloudy,300,2013-07-23 14:45:00
11:48 AM,86.0,73.4,66,29.72,10.0,NW,9.2,-,N/A,,Scattered Clouds,310,2013-07-23 15:48:00
11:53 AM,86.0,73.9,67,29.73,10.0,NW,6.9,-,N/A,,Scattered Clouds,320,2013-07-23 15:53:00
12:13 PM,85.5,73.9,68,29.73,10.0,NW,9.2,-,N/A,,Scattered Clouds,310,2013-07-23 16:13:00
12:16 PM,85.6,74.1,68,29.73,10.0,NNW,10.4,16.1,N/A,,Scattered Clouds,330,2013-07-23 16:16:00
12:45 PM,87.8,75.2,66,29.72,10.0,West,8.1,-,N/A,,Scattered Clouds,270,2013-07-23 16:45:00
1:53 PM,86.0,73.4,66,29.71,10.0,WNW,9.2,-,N/A,,Mostly Cloudy,290,2013-07-23 17:53:00
2:46 PM,86.0,73.4,66,29.71,10.0,WNW,8.1,-,N/A,,Scattered Clouds,300,2013-07-23 18:46:00
3:50 PM,87.8,73.4,62,29.69,10.0,West,5.8,-,N/A,,Mostly Cloudy,280,2013-07-23 19:50:00
4:45 PM,86.0,71.6,62,29.68,10.0,West,13.8,-,N/A,,Scattered Clouds,280,2013-07-23 20:45:00
5:53 PM,86.0,71.6,62,29.68,10.0,WNW,9.2,18.4,N/A,,Scattered Clouds,300,2013-07-23 21:53:00
6:53 PM,86.0,71.6,62,29.68,10.0,WNW,8.1,-,N/A,,Scattered Clouds,300,2013-07-23 22:53:00
7:53 PM,82.4,69.8,66,29.70,10.0,WNW,9.2,-,N/A,,Scattered Clouds,300,2013-07-23 23:53:00
8:53 PM,80.6,68.0,65,29.72,10.0,WNW,8.1,-,N/A,,Scattered Clouds,300,2013-07-24 00:53:00
10:54 PM,77.2,69.6,77,29.73,10.0,West,3.5,-,N/A,,Clear,260,2013-07-24 02:54:00
11:14 PM,77.2,69.8,78,29.73,10.0,Calm,Calm,-,N/A,,Clear,0,2013-07-24 03:14:00
11:34 PM,76.1,70.2,82,29.73,10.0,Calm,Calm,-,N/A,,Clear,0,2013-07-24 03:34:00
11:54 PM,75.2,70.3,85,29.74,10.0,West,3.5,-,N/A,,Clear,260,2013-07-24 03:54:00